Time;durP1;ratioP1;P1;durP2;ratioP2;P2;SDS_P1;SDS_P2;PMS_P1;PMS_P2;Temp;Humidity;BMP_temperature;BMP_pressure;BME280_temperature;BME280_humidity;BME280_pressure;Samples;Min_cycle;Max_cycle;Signal;HPM_P1;HPM_P2
2022/11/15 00:01:17;;;;;;;68.72;14.25;;;;;;;5.24;100.00;98474.22;2600365;28;20049;-78
2022/11/15 00:02:32;;;;;;;72.53;15.25;;;;;;;4.99;100.00;98470.88;2600903;28;20049;-79
2022/11/15 00:03:51;;;;;;;49.97;13.85;;;;;;;5.02;100.00;98471.75;2600536;28;20093;-78
2022/11/15 00:05:07;;;;;;;123.63;17.50;;;;;;;5.12;100.00;98479.47;2601669;28;20045;-78
2022/11/15 00:06:22;;;;;;;59.00;13.82;;;;;;;5.00;100.00;98476.06;2600998;28;20748;-78
2022/11/15 00:07:38;;;;;;;71.32;14.90;;;;;;;5.31;100.00;98477.66;2600725;28;20060;-78
2022/11/15 00:08:54;;;;;;;96.80;15.82;;;;;;;5.44;100.00;98468.88;2600202;28;20057;-78
2022/11/15 00:10:11;;;;;;;84.35;16.20;;;;;;;5.45;100.00;98482.75;2604902;28;20071;-78
2022/11/15 00:11:27;;;;;;;131.77;17.58;;;;;;;5.51;100.00;98474.91;2602212;28;20474;-81
2022/11/15 00:12:42;;;;;;;57.00;14.73;;;;;;;5.39;100.00;98475.84;2598870;28;20045;-81
2022/11/15 00:13:58;;;;;;;93.40;15.73;;;;;;;5.34;100.00;98469.84;2600714;28;20053;-79
2022/11/15 00:15:14;;;;;;;73.55;16.45;;;;;;;5.44;100.00;98474.06;2600841;28;20480;-79
2022/11/15 00:16:29;;;;;;;74.55;14.45;;;;;;;5.44;100.00;98474.06;2601170;28;20041;-78
2022/11/15 00:17:48;;;;;;;74.78;15.82;;;;;;;5.24;100.00;98471.63;2600909;28;20529;-78
2022/11/15 00:19:04;;;;;;;102.25;16.05;;;;;;;4.95;100.00;98477.81;2600567;28;20124;-78
2022/11/15 00:20:20;;;;;;;85.57;14.95;;;;;;;4.94;100.00;98476.09;2602116;28;20102;-78
2022/11/15 00:21:35;;;;;;;75.57;14.70;;;;;;;4.73;100.00;98484.81;2599312;28;20692;-78
2022/11/15 00:22:51;;;;;;;83.00;15.32;;;;;;;4.94;100.00;98484.75;2599055;28;20464;-81
2022/11/15 00:24:06;;;;;;;117.55;15.63;;;;;;;4.99;100.00;98483.84;2600279;28;20049;-80
2022/11/15 00:25:22;;;;;;;86.18;15.85;;;;;;;5.10;100.00;98476.88;2600663;28;20057;-78
2022/11/15 00:26:37;;;;;;;77.78;16.40;;;;;;;5.24;100.00;98476.81;2601545;28;20048;-78
2022/11/15 00:27:57;;;;;;;77.25;14.70;;;;;;;5.37;100.00;98488.81;2600827;28;20080;-78
2022/11/15 00:29:12;;;;;;;83.45;15.43;;;;;;;5.44;100.00;98481.84;2600304;28;20053;-78
2022/11/15 00:30:28;;;;;;;57.55;12.75;;;;;;;5.37;100.00;98478.44;2600478;28;20057;-80
2022/11/15 00:31:47;;;;;;;70.97;16.25;;;;;;;5.28;100.00;98480.25;2601009;28;20045;-78
2022/11/15 00:33:28;;;;;;;62.05;13.93;;;;;;;4.91;100.00;98476.09;2599737;28;20084;-79
2022/11/15 00:35:09;;;;;;;62.55;13.95;;;;;;;4.90;100.00;98477.84;2600845;28;20120;-78
2022/11/15 00:36:25;;;;;;;74.90;15.80;;;;;;;5.01;100.00;98472.59;2601568;28;20052;-78
2022/11/15 00:37:40;;;;;;;79.80;15.52;;;;;;;4.93;100.00;98472.66;2602976;28;20053;-78
2022/11/15 00:38:56;;;;;;;56.40;13.25;;;;;;;4.96;100.00;98474.38;2601377;28;20637;-80
2022/11/15 00:40:14;;;;;;;73.93;15.35;;;;;;;4.91;100.00;98476.09;2603721;28;20084;-80
2022/11/15 00:41:30;;;;;;;95.10;18.23;;;;;;;4.99;100.00;98473.47;2601651;28;20249;-79
2022/11/15 00:42:46;;;;;;;49.20;13.13;;;;;;;4.89;100.00;98476.13;2603091;28;20114;-78
2022/11/15 00:44:01;;;;;;;92.32;15.80;;;;;;;5.08;100.00;98474.28;2604008;28;20052;-77
2022/11/15 00:45:17;;;;;;;69.35;13.82;;;;;;;5.16;100.00;98469.06;2601983;28;20081;-80
2022/11/15 00:46:33;;;;;;;69.10;14.15;;;;;;;5.15;100.00;98464.72;2603892;28;20511;-77
2022/11/15 00:47:48;;;;;;;74.75;15.88;;;;;;;5.25;100.00;98465.56;2601424;28;20853;-80
2022/11/15 00:49:04;;;;;;;79.97;15.13;;;;;;;5.31;100.00;98467.25;2603358;28;20423;-78
2022/11/15 00:50:19;;;;;;;119.00;15.77;;;;;;;5.23;100.00;98470.75;2603690;28;20049;-78
2022/11/15 00:51:35;;;;;;;64.13;14.45;;;;;;;5.09;100.00;98473.41;2602089;28;20064;-78
2022/11/15 00:52:51;;;;;;;75.63;15.93;;;;;;;5.15;100.00;98469.09;2601002;28;20060;-78
2022/11/15 00:54:06;;;;;;;53.90;11.65;;;;;;;5.02;100.00;98463.06;2603510;28;20048;-78
2022/11/15 00:55:22;;;;;;;88.28;17.73;;;;;;;5.30;100.00;98462.91;2600889;28;20080;-79
2022/11/15 00:56:37;;;;;;;72.63;14.98;;;;;;;5.29;100.00;98471.56;2602314;28;20056;-79
2022/11/15 00:57:53;;;;;;;83.22;13.85;;;;;;;5.30;100.00;98470.69;2600709;28;20053;-78
2022/11/15 00:59:08;;;;;;;106.63;18.05;;;;;;;5.40;100.00;98464.59;2601538;28;20061;-82
2022/11/15 01:00:24;;;;;;;87.53;15.82;;;;;;;5.31;100.00;98465.50;2604085;28;20049;-79
2022/11/15 01:01:40;;;;;;;92.68;16.13;;;;;;;5.36;100.00;98466.34;2600986;28;20448;-78
2022/11/15 01:02:55;;;;;;;78.22;14.55;;;;;;;5.23;100.00;98456.91;2601807;28;20114;-78
2022/11/15 01:04:11;;;;;;;123.72;17.10;;;;;;;5.38;100.00;98458.56;2604108;28;20053;-78
2022/11/15 01:05:27;;;;;;;113.65;17.13;;;;;;;5.46;100.00;98467.16;2603428;28;20104;-78
2022/11/15 01:06:43;;;;;;;136.40;17.88;;;;;;;5.51;100.00;98459.31;2602459;28;20171;-78
2022/11/15 01:07:58;;;;;;;97.50;16.95;;;;;;;5.51;100.00;98460.19;2603732;28;20083;-79
2022/11/15 01:09:14;;;;;;;84.70;15.18;;;;;;;5.53;100.00;98455.00;2600961;28;20046;-78
2022/11/15 01:10:29;;;;;;;72.82;14.45;;;;;;;5.40;100.00;98461.16;2600771;28;20088;-80
2022/11/15 01:11:45;;;;;;;34.70;13.88;;;;;;;5.51;100.00;98454.13;2601326;28;20060;-79
2022/11/15 01:13:01;;;;;;;35.25;13.80;;;;;;;5.59;100.00;98443.69;2601409;28;20446;-80
2022/11/15 01:14:16;;;;;;;128.30;17.75;;;;;;;5.54;100.00;98451.53;2601338;28;20045;-78
2022/11/15 01:15:32;;;;;;;59.50;14.63;;;;;;;5.46;100.00;98438.59;2603543;28;20053;-78
2022/11/15 01:16:48;;;;;;;111.88;16.42;;;;;;;5.51;100.00;98439.41;2600586;28;20905;-80
2022/11/15 01:18:03;;;;;;;112.82;15.95;;;;;;;5.45;100.00;98447.25;2600365;28;20056;-79
2022/11/15 01:19:19;;;;;;;114.43;16.05;;;;;;;5.48;100.00;98442.03;2600664;28;20053;-78
2022/11/15 01:20:38;;;;;;;75.60;13.52;;;;;;;5.40;100.00;98443.81;2600501;28;20049;-78
2022/11/15 01:21:54;;;;;;;50.55;14.32;;;;;;;5.25;100.00;98443.91;2600871;28;20144;-80
2022/11/15 01:23:10;;;;;;;72.03;14.07;;;;;;;5.29;100.00;98446.50;2600365;28;20518;-78
2022/11/15 01:24:27;;;;;;;60.10;14.40;;;;;;;5.19;100.00;98437.03;2601903;28;20586;-79
2022/11/15 01:25:42;;;;;;;125.45;18.35;;;;;;;5.28;100.00;98438.72;2602025;28;20045;-78
2022/11/15 01:26:58;;;;;;;122.15;18.33;;;;;;;5.36;100.00;98442.97;2603338;28;20801;-78
2022/11/15 01:28:14;;;;;;;165.20;21.42;;;;;;;5.42;100.00;98442.06;2602974;28;20397;-79
2022/11/15 01:29:29;;;;;;;44.83;13.30;;;;;;;5.31;100.00;98441.31;2602434;28;20049;-79
2022/11/15 01:30:45;;;;;;;39.20;13.60;;;;;;;4.94;100.00;98442.34;2602590;28;20071;-79
2022/11/15 01:32:01;;;;;;;43.13;13.02;;;;;;;4.58;100.00;98444.25;2601272;28;20463;-79
2022/11/15 01:33:16;;;;;;;37.72;13.90;;;;;;;4.66;100.00;98439.88;2602326;28;20613;-78
2022/11/15 01:34:32;;;;;;;40.97;14.57;;;;;;;4.85;100.00;98440.69;2601968;28;20751;-78
2022/11/15 01:35:47;;;;;;;40.70;14.13;;;;;;;4.77;100.00;98442.47;2602230;28;20056;-78
2022/11/15 01:37:03;;;;;;;39.53;14.15;;;;;;;4.76;100.00;98441.59;2603436;28;20049;-78
2022/11/15 01:38:19;;;;;;;44.38;14.55;;;;;;;4.95;100.00;98449.28;2602673;28;20045;-78
2022/11/15 01:39:34;;;;;;;48.75;14.32;;;;;;;4.72;100.00;98446.78;2602251;28;20045;-78
2022/11/15 01:40:49;;;;;;;47.47;14.10;;;;;;;4.80;100.00;98438.09;2602326;28;20045;-78
2022/11/15 01:42:05;;;;;;;118.90;18.52;;;;;;;5.02;100.00;98437.13;2601943;28;20530;-81
2022/11/15 01:43:27;;;;;;;105.40;16.00;;;;;;;4.91;100.00;98437.19;2601442;28;20080;-78
2022/11/15 01:44:46;;;;;;;49.30;14.32;;;;;;;4.76;100.00;98430.38;2601089;28;20089;-78
2022/11/15 01:46:23;;;;;;;83.90;15.43;;;;;;;4.58;100.00;98431.31;2600639;28;20408;-79
2022/11/15 01:47:44;;;;;;;45.47;14.35;;;;;;;4.62;100.00;98433.00;2601146;28;20102;-78
2022/11/15 01:49:05;;;;;;;32.30;12.27;;;;;;;4.44;100.00;98429.63;2600142;28;20063;-78
2022/11/15 01:50:32;;;;;;;46.85;14.30;;;;;;;4.40;100.00;98429.63;2603164;28;20055;-79
2022/11/15 01:51:48;;;;;;;48.13;14.98;;;;;;;4.40;100.00;98417.53;2602689;28;20045;-78
2022/11/15 01:53:03;;;;;;;44.38;14.70;;;;;;;4.30;100.00;98427.06;2601410;28;20129;-78
2022/11/15 01:54:21;;;;;;;53.70;14.43;;;;;;;4.21;100.00;98419.31;2603190;28;20543;-78
2022/11/15 01:55:37;;;;;;;42.28;13.65;;;;;;;4.05;100.00;98426.25;2603131;28;20049;-78
2022/11/15 01:56:58;;;;;;;78.85;16.60;;;;;;;4.35;100.00;98424.44;2601635;28;20543;-83
2022/11/15 01:58:14;;;;;;;73.95;15.98;;;;;;;4.45;100.00;98414.91;2600541;28;20485;-78
2022/11/15 01:59:30;;;;;;;79.97;15.38;;;;;;;4.58;100.00;98428.72;2600368;28;20060;-79
2022/11/15 02:00:47;;;;;;;67.57;15.10;;;;;;;4.50;100.00;98428.75;2600810;28;20061;-79
2022/11/15 02:02:03;;;;;;;57.47;13.18;;;;;;;4.49;100.00;98422.69;2600905;28;20134;-78
2022/11/15 02:03:23;;;;;;;50.47;14.20;;;;;;;4.33;100.00;98427.06;2602464;28;20045;-78
2022/11/15 02:04:44;;;;;;;93.03;14.70;;;;;;;4.44;100.00;98418.38;2601135;28;20081;-80
2022/11/15 02:06:00;;;;;;;116.00;15.85;;;;;;;4.43;100.00;98424.44;2600843;28;20059;-78
2022/11/15 02:07:18;;;;;;;99.10;15.57;;;;;;;4.70;100.00;98417.41;2602014;28;20057;-78
2022/11/15 02:08:34;;;;;;;138.07;16.88;;;;;;;4.81;100.00;98418.22;2601681;28;20085;-78
2022/11/15 02:09:50;;;;;;;69.72;12.32;;;;;;;4.77;100.00;98413.94;2601021;28;20481;-79
2022/11/15 02:11:09;;;;;;;110.53;15.70;;;;;;;4.99;100.00;98414.69;2599889;28;20152;-78
2022/11/15 02:12:25;;;;;;;85.35;15.10;;;;;;;5.04;100.00;98417.25;2602420;28;20136;-78
2022/11/15 02:13:41;;;;;;;80.28;13.23;;;;;;;4.78;100.00;98419.09;2600287;28;20156;-78
2022/11/15 02:14:57;;;;;;;97.63;16.88;;;;;;;4.62;100.00;98412.25;2601224;28;20045;-78
2022/11/15 02:16:35;;;;;;;99.88;18.40;;;;;;;4.54;100.00;98409.69;2600844;28;20076;-78
2022/11/15 02:18:02;;;;;;;94.80;15.63;;;;;;;4.72;100.00;98403.56;2601402;28;20094;-78
2022/11/15 02:19:33;;;;;;;95.40;14.68;;;;;;;4.76;100.00;98409.63;2601781;28;20056;-78
2022/11/15 02:21:06;;;;;;;106.95;14.98;;;;;;;4.88;100.00;98399.16;2601296;28;20050;-79
2022/11/15 02:22:44;;;;;;;85.65;14.02;;;;;;;4.86;100.00;98406.09;2602629;28;20048;-80
2022/11/15 02:24:23;;;;;;;71.18;12.30;;;;;;;4.97;100.00;98405.16;2600229;28;20056;-78
2022/11/15 02:26:13;;;;;;;65.28;13.07;;;;;;;4.97;100.00;98411.22;2601561;28;20084;-79
2022/11/15 02:27:56;;;;;;;110.53;14.25;;;;;;;5.01;100.00;98412.94;2590596;28;20069;-78
2022/11/15 02:29:28;;;;;;;80.00;13.07;;;;;;;4.72;100.00;98408.75;2601375;28;20111;-78
2022/11/15 02:31:29;;;;;;;64.53;12.80;;;;;;;4.79;100.00;98417.38;2602875;28;20138;-78
2022/11/15 02:32:51;;;;;;;46.63;11.10;;;;;;;4.76;100.00;98405.28;2584860;28;20530;-78
2022/11/15 02:34:25;;;;;;;71.65;13.05;;;;;;;4.99;100.00;98408.59;2601467;28;20041;-79
2022/11/15 02:35:56;;;;;;;30.67;10.32;;;;;;;4.90;100.00;98412.13;2602638;28;20053;-78
2022/11/15 02:37:25;;;;;;;29.55;10.80;;;;;;;4.63;100.00;98403.59;2608817;28;20044;-80
2022/11/15 02:38:58;;;;;;;28.27;10.45;;;;;;;3.94;100.00;98414.19;2605841;28;20049;-79
2022/11/15 02:40:44;;;;;;;29.75;11.80;;;;;;;3.84;100.00;98415.06;2605639;28;20376;-78
2022/11/15 02:44:33;;;;;;;26.30;9.80;;;;;;;3.92;100.00;98404.72;2591627;28;20393;-78
2022/11/15 02:45:55;;;;;;;32.65;10.88;;;;;;;4.05;100.00;98408.13;2602751;28;20064;-79
2022/11/15 02:47:16;;;;;;;37.85;12.38;;;;;;;3.95;100.00;98399.53;2601302;28;20091;-81
2022/11/15 02:48:32;;;;;;;56.90;14.45;;;;;;;4.09;100.00;98404.66;2602962;28;20553;-78
2022/11/15 02:49:54;;;;;;;51.08;13.73;;;;;;;4.20;100.00;98399.47;2601091;28;20094;-78
2022/11/15 02:51:10;;;;;;;35.58;13.40;;;;;;;4.13;100.00;98408.97;2600672;28;20147;-78
2022/11/15 02:52:26;;;;;;;36.17;13.20;;;;;;;4.07;100.00;98404.69;2601415;28;20053;-78
2022/11/15 02:53:41;;;;;;;42.55;13.57;;;;;;;4.00;100.00;98412.47;2600512;28;20706;-79
2022/11/15 02:54:59;;;;;;;52.92;14.65;;;;;;;4.18;100.00;98401.16;2600343;28;20124;-78
2022/11/15 02:56:15;;;;;;;41.45;13.35;;;;;;;4.12;100.00;98402.06;2601660;28;20077;-78
2022/11/15 02:57:45;;;;;;;44.83;13.15;;;;;;;4.01;100.00;98402.09;2599882;28;20050;-78
2022/11/15 02:59:20;;;;;;;49.20;13.43;;;;;;;3.96;100.00;98399.50;2602165;28;20140;-79
2022/11/15 03:00:45;;;;;;;34.72;14.10;;;;;;;4.01;100.00;98398.66;2601256;28;20059;-79
2022/11/15 03:02:17;;;;;;;38.67;13.05;;;;;;;4.08;100.00;98393.44;2601490;28;20049;-78
2022/11/15 03:03:58;;;;;;;48.42;13.95;;;;;;;4.18;100.00;98394.28;2599489;28;20049;-78
2022/11/15 03:05:43;;;;;;;51.08;13.65;;;;;;;4.12;100.00;98386.53;2600149;28;20123;-79
2022/11/15 03:07:11;;;;;;;41.65;11.75;;;;;;;3.90;100.00;98396.06;2600657;28;20099;-79
2022/11/15 03:08:41;;;;;;;44.85;14.27;;;;;;;4.08;100.00;98392.56;2599991;28;20140;-78
2022/11/15 03:10:12;;;;;;;30.95;11.55;;;;;;;4.15;100.00;98386.50;2602667;28;20670;-78
2022/11/15 03:11:29;;;;;;;37.28;12.50;;;;;;;4.05;100.00;98390.00;2600173;28;20110;-78
2022/11/15 03:12:53;;;;;;;32.63;12.07;;;;;;;3.96;100.00;98383.94;2602165;28;20077;-78
2022/11/15 03:14:18;;;;;;;28.70;11.20;;;;;;;3.85;100.00;98382.25;2601473;28;20073;-79
2022/11/15 03:15:45;;;;;;;32.33;11.88;;;;;;;3.75;100.00;98384.00;2601185;28;20480;-79
2022/11/15 03:17:11;;;;;;;33.85;12.40;;;;;;;3.72;100.00;98390.03;2600756;28;20647;-81
2022/11/15 03:18:52;;;;;;;33.85;11.88;;;;;;;3.77;100.00;98388.34;2599711;28;20111;-78
2022/11/15 03:20:09;;;;;;;36.40;11.55;;;;;;;3.56;100.00;98394.38;2598013;28;20056;-78
2022/11/15 03:21:29;;;;;;;37.45;12.13;;;;;;;3.62;100.00;98393.50;2602914;28;20075;-79
2022/11/15 03:22:47;;;;;;;37.17;13.65;;;;;;;3.50;100.00;98387.50;2599451;28;20114;-79
2022/11/15 03:24:06;;;;;;;32.50;12.48;;;;;;;3.30;100.00;98394.38;2600154;28;20048;-79
2022/11/15 03:25:25;;;;;;;37.58;13.10;;;;;;;3.50;100.00;98392.66;2599423;28;20491;-78
2022/11/15 03:26:44;;;;;;;34.80;13.23;;;;;;;3.61;100.00;98394.38;2601187;28;20044;-79
2022/11/15 03:28:06;;;;;;;47.65;13.55;;;;;;;3.65;100.00;98388.34;2601276;28;20447;-80
2022/11/15 03:29:23;;;;;;;;;;;;;;;3.87;100.00;98378.81;2610626;28;20526;-78
2022/11/15 03:30:39;;;;;;;31.67;11.25;;;;;;;4.00;100.00;98376.19;2604646;28;20019;-79
2022/11/15 03:32:00;;;;;;;28.00;11.38;;;;;;;4.03;100.00;98371.84;2599910;28;20049;-77
2022/11/15 03:33:17;;;;;;;27.70;11.82;;;;;;;3.95;100.00;98378.78;2599782;28;20176;-83
2022/11/15 03:34:43;;;;;;;35.65;12.90;;;;;;;4.09;100.00;98382.22;2600623;28;20340;-78
2022/11/15 03:35:59;;;;;;;36.63;12.23;;;;;;;4.20;100.00;98381.31;2601942;28;20491;-78
2022/11/15 03:37:17;;;;;;;31.27;12.85;;;;;;;4.18;100.00;98380.44;2600233;28;20041;-78
2022/11/15 03:38:35;;;;;;;30.83;12.27;;;;;;;4.26;100.00;98389.06;2600889;28;20125;-78
2022/11/15 03:39:50;;;;;;;22.73;10.40;;;;;;;4.28;100.00;98379.56;2600865;28;20049;-78
2022/11/15 03:41:17;;;;;;;25.95;10.52;;;;;;;4.26;100.00;98383.88;2600988;28;20051;-78
2022/11/15 03:42:43;;;;;;;22.30;10.05;;;;;;;4.32;100.00;98378.66;2600276;28;20049;-78
2022/11/15 03:44:14;;;;;;;23.13;9.63;;;;;;;4.34;100.00;98376.06;2609781;28;20045;-79
2022/11/15 03:45:43;;;;;;;23.67;10.00;;;;;;;4.35;100.00;98364.84;2603294;28;20052;-79
2022/11/15 03:47:09;;;;;;;22.95;9.70;;;;;;;4.31;100.00;98369.16;2599240;28;20084;-78
2022/11/15 03:48:30;;;;;;;20.92;8.73;;;;;;;4.22;100.00;98371.81;2599462;28;20052;-79
2022/11/15 03:49:52;;;;;;;21.53;9.17;;;;;;;4.28;100.00;98371.78;2600501;28;20136;-78
2022/11/15 03:51:08;;;;;;;20.10;10.43;;;;;;;4.36;100.00;98364.84;2601372;28;20895;-78
2022/11/15 03:52:24;;;;;;;23.48;9.15;;;;;;;4.32;100.00;98370.03;2599870;28;20096;-78
2022/11/15 03:53:40;;;;;;;28.38;9.50;;;;;;;4.33;100.00;98375.22;2601168;28;20049;-77
2022/11/15 03:54:56;;;;;;;23.17;9.95;;;;;;;4.41;100.00;98363.97;2598692;28;20081;-81
2022/11/15 03:56:12;;;;;;;21.45;9.20;;;;;;;4.38;100.00;98367.41;2599245;28;20404;-79
2022/11/15 03:57:28;;;;;;;24.40;9.63;;;;;;;4.33;100.00;98364.88;2599151;28;20046;-77
2022/11/15 03:58:44;;;;;;;21.65;10.23;;;;;;;4.24;100.00;98368.31;2599831;28;20048;-82
2022/11/15 03:59:59;;;;;;;23.67;9.90;;;;;;;4.36;100.00;98359.66;2600843;28;20055;-81
2022/11/15 04:01:15;;;;;;;28.95;9.93;;;;;;;4.27;100.00;98362.28;2599417;28;20554;-80
2022/11/15 04:02:33;;;;;;;25.48;9.85;;;;;;;4.31;100.00;98356.22;2599484;28;20909;-79
2022/11/15 04:03:49;;;;;;;23.52;10.07;;;;;;;4.38;100.00;98359.63;2599547;28;20127;-79
2022/11/15 04:05:04;;;;;;;24.75;10.55;;;;;;;4.40;100.00;98354.47;2599408;28;20132;-78
2022/11/15 04:06:20;;;;;;;23.00;10.43;;;;;;;4.48;100.00;98357.88;2600738;28;20045;-80
2022/11/15 04:07:36;;;;;;;24.48;10.52;;;;;;;4.55;100.00;98358.72;2599639;28;20052;-79
2022/11/15 04:08:51;;;;;;;29.15;10.93;;;;;;;4.34;100.00;98355.34;2598412;28;20052;-79
2022/11/15 04:10:09;;;;;;;28.92;10.25;;;;;;;4.24;100.00;98362.31;2600573;28;20436;-79
2022/11/15 04:11:25;;;;;;;27.65;11.13;;;;;;;4.41;100.00;98363.97;2600855;28;20140;-79
2022/11/15 04:12:43;;;;;;;24.63;10.68;;;;;;;4.49;100.00;98362.19;2600758;28;20718;-79
2022/11/15 04:13:59;;;;;;;28.85;11.45;;;;;;;4.40;100.00;98357.94;2601855;28;20080;-79
2022/11/15 04:15:17;;;;;;;24.75;10.57;;;;;;;4.48;100.00;98361.31;2600095;28;20049;-78
2022/11/15 04:16:33;;;;;;;26.55;10.57;;;;;;;4.61;100.00;98364.75;2600682;28;20057;-79
2022/11/15 04:17:53;;;;;;;27.90;11.50;;;;;;;4.63;100.00;98360.41;2600299;28;20055;-79
2022/11/15 04:25:07;;;;;;;21.90;10.00;;;;;;;4.83;100.00;98351.63;2599612;28;20041;-79
2022/11/15 04:26:23;;;;;;;22.75;10.32;;;;;;;4.33;100.00;98353.63;2600489;28;20496;-78
2022/11/15 04:27:39;;;;;;;24.55;10.30;;;;;;;4.23;100.00;98357.97;2600918;28;20045;-78
2022/11/15 04:30:29;;;;;;;25.75;11.00;;;;;;;4.08;100.00;98357.16;2599155;28;20061;-78
2022/11/15 04:31:44;;;;;;;30.85;11.40;;;;;;;4.14;100.00;98353.69;2599648;28;20049;-78
2022/11/15 04:33:00;;;;;;;29.15;10.95;;;;;;;4.46;100.00;98352.69;2600277;28;20056;-78
2022/11/15 04:34:16;;;;;;;28.70;11.68;;;;;;;4.50;100.00;98350.97;2600866;28;20056;-79
2022/11/15 04:35:32;;;;;;;30.45;11.07;;;;;;;4.35;100.00;98352.75;2600716;28;20716;-77
2022/11/15 04:38:21;;;;;;;30.90;11.88;;;;;;;4.45;100.00;98345.78;2599390;28;20098;-78
2022/11/15 04:39:37;;;;;;;33.75;11.77;;;;;;;4.58;100.00;98349.16;2600405;28;20049;-77
2022/11/15 04:40:53;;;;;;;28.30;11.45;;;;;;;4.47;100.00;98345.75;2599599;28;20044;-78
2022/11/15 04:42:09;;;;;;;32.90;12.43;;;;;;;4.60;100.00;98338.81;2600816;28;20060;-78
2022/11/15 04:43:25;;;;;;;29.50;11.93;;;;;;;4.66;100.00;98344.81;2600367;28;20053;-78
2022/11/15 04:44:41;;;;;;;31.10;11.63;;;;;;;4.72;100.00;98345.63;2598805;28;20049;-78
2022/11/15 04:45:56;;;;;;;34.35;11.10;;;;;;;4.82;100.00;98344.72;2599098;28;20152;-78
2022/11/15 04:47:12;;;;;;;30.02;11.73;;;;;;;4.71;100.00;98349.09;2598631;28;20534;-78
2022/11/15 04:48:28;;;;;;;44.60;18.65;;;;;;;4.80;100.00;98352.50;2599180;28;20053;-79
2022/11/15 04:49:43;;;;;;;47.63;20.75;;;;;;;4.84;100.00;98350.75;2598798;28;20053;-78
2022/11/15 04:50:59;;;;;;;32.13;14.10;;;;;;;4.89;100.00;98342.94;2600792;28;20049;-77
2022/11/15 04:52:14;;;;;;;29.27;12.07;;;;;;;4.92;100.00;98349.00;2601856;28;20212;-78
2022/11/15 04:53:30;;;;;;;25.58;11.10;;;;;;;4.89;100.00;98348.13;2600128;28;20072;-81
2022/11/15 04:54:46;;;;;;;30.35;11.57;;;;;;;4.86;100.00;98343.81;2598635;28;20092;-77
2022/11/15 04:56:01;;;;;;;25.73;10.70;;;;;;;4.68;100.00;98347.41;2600019;28;20045;-78
2022/11/15 04:57:17;;;;;;;27.40;10.48;;;;;;;4.87;100.00;98347.28;2599714;28;20099;-79
2022/11/15 04:58:33;;;;;;;29.42;11.65;;;;;;;4.64;100.00;98343.09;2601512;28;20100;-79
2022/11/15 04:59:49;;;;;;;25.77;10.90;;;;;;;4.86;100.00;98345.56;2598659;28;20073;-79
2022/11/15 05:01:11;;;;;;;27.60;10.80;;;;;;;4.87;100.00;98344.69;2598666;28;20506;-78
2022/11/15 05:04:18;;;;;;;;;;;;;;;4.87;100.00;98342.09;2602472;28;20045;-78
2022/11/15 05:04:21;;;;;;;25.52;10.70;;;;;;;4.98;100.00;98344.63;2600466;28;20280;-78
2022/11/15 05:05:37;;;;;;;24.33;9.68;;;;;;;4.96;100.00;98339.47;2610413;28;20087;-78
2022/11/15 05:06:52;;;;;;;25.17;10.80;;;;;;;5.03;100.00;98335.06;2603047;28;20045;-78
2022/11/15 05:08:08;;;;;;;26.85;10.98;;;;;;;5.08;100.00;98339.34;2599206;28;20045;-78
2022/11/15 05:09:24;;;;;;;31.65;11.10;;;;;;;5.01;100.00;98336.81;2600072;28;20111;-81
2022/11/15 05:10:39;;;;;;;24.48;10.80;;;;;;;5.08;100.00;98335.91;2604152;28;20049;-78
2022/11/15 05:11:55;;;;;;;25.48;10.80;;;;;;;5.11;100.00;98338.47;2602271;28;20049;-78
2022/11/15 05:13:10;;;;;;;28.70;11.52;;;;;;;5.10;100.00;98336.75;2600723;28;20118;-78
2022/11/15 05:14:26;;;;;;;26.88;10.40;;;;;;;4.97;100.00;98338.59;2600324;28;20056;-78
2022/11/15 05:15:42;;;;;;;29.88;11.30;;;;;;;4.98;100.00;98342.03;2598879;28;20471;-78
2022/11/15 05:16:57;;;;;;;29.88;10.52;;;;;;;4.93;100.00;98335.13;2600322;28;20048;-78
2022/11/15 05:18:13;;;;;;;39.45;12.80;;;;;;;4.83;100.00;98328.28;2599234;28;20064;-79
2022/11/15 05:19:28;;;;;;;30.05;10.95;;;;;;;5.01;100.00;98327.31;2601597;28;20495;-79
2022/11/15 05:20:44;;;;;;;75.25;13.80;;;;;;;5.11;100.00;98330.69;2599307;28;20063;-79
2022/11/15 05:22:00;;;;;;;29.45;12.30;;;;;;;5.17;100.00;98330.66;2599462;28;20924;-78
2022/11/15 05:23:15;;;;;;;70.70;13.63;;;;;;;5.19;100.00;98326.31;2601179;28;20049;-82
2022/11/15 05:24:31;;;;;;;37.88;11.40;;;;;;;4.94;100.00;98321.28;2600943;28;20053;-80
2022/11/15 05:25:46;;;;;;;57.40;14.35;;;;;;;5.01;100.00;98323.81;2601699;28;20115;-79
2022/11/15 05:27:02;;;;;;;40.97;10.38;;;;;;;4.98;100.00;98326.44;2602795;28;20077;-79
2022/11/15 05:28:17;;;;;;;21.98;9.98;;;;;;;4.99;100.00;98320.38;2602080;28;20060;-79
2022/11/15 05:29:33;;;;;;;27.25;9.52;;;;;;;5.05;100.00;98329.00;2600413;28;20526;-78
2022/11/15 05:30:49;;;;;;;21.20;10.35;;;;;;;5.03;100.00;98327.28;2602960;28;20098;-79
2022/11/15 05:32:06;;;;;;;28.17;10.10;;;;;;;4.75;100.00;98323.16;2603026;28;20118;-78
2022/11/15 05:33:21;;;;;;;21.92;9.73;;;;;;;4.73;100.00;98324.03;2603269;28;20517;-78
2022/11/15 05:34:37;;;;;;;25.55;10.65;;;;;;;4.64;100.00;98320.63;2601522;28;20087;-78
2022/11/15 05:36:00;;;;;;;27.95;9.98;;;;;;;4.63;100.00;98321.50;2600414;28;20061;-78
2022/11/15 05:37:16;;;;;;;20.08;9.60;;;;;;;4.83;100.00;98315.31;2602936;28;20053;-78
2022/11/15 05:38:32;;;;;;;33.10;10.27;;;;;;;4.64;100.00;98315.44;2603231;28;21113;-77
2022/11/15 05:39:48;;;;;;;28.75;10.02;;;;;;;4.35;100.00;98324.25;2600361;28;20057;-78
2022/11/15 05:41:04;;;;;;;34.20;9.60;;;;;;;4.56;100.00;98314.63;2600716;28;20075;-77
2022/11/15 05:42:20;;;;;;;34.53;9.93;;;;;;;4.50;100.00;98315.50;2603211;28;20055;-77
2022/11/15 05:43:38;;;;;;;32.30;9.65;;;;;;;4.62;100.00;98314.59;2601764;28;20045;-77
2022/11/15 05:44:54;;;;;;;27.98;10.40;;;;;;;4.67;100.00;98314.53;2600916;28;20095;-78
2022/11/15 05:46:12;;;;;;;25.33;9.95;;;;;;;4.64;100.00;98306.78;2600881;28;20049;-78
2022/11/15 05:47:30;;;;;;;25.33;10.10;;;;;;;4.69;100.00;98319.72;2599846;28;20045;-78
2022/11/15 05:48:51;;;;;;;21.25;9.35;;;;;;;4.84;100.00;98321.38;2600707;28;20130;-78
2022/11/15 05:50:11;;;;;;;22.17;9.43;;;;;;;4.76;100.00;98322.28;2601702;28;20045;-78
2022/11/15 05:51:28;;;;;;;28.42;9.25;;;;;;;4.69;100.00;98319.72;2599544;28;20049;-79
2022/11/15 05:52:46;;;;;;;30.90;10.50;;;;;;;4.75;100.00;98317.97;2602085;28;20500;-77
2022/11/15 05:54:02;;;;;;;20.30;9.63;;;;;;;4.83;100.00;98315.31;2600541;28;20189;-77
2022/11/15 05:55:18;;;;;;;20.80;9.80;;;;;;;5.02;100.00;98317.75;2599974;28;20052;-78
2022/11/15 05:56:34;;;;;;;26.38;10.60;;;;;;;4.93;100.00;98321.28;2601212;28;20132;-80
2022/11/15 05:57:49;;;;;;;19.58;9.60;;;;;;;4.94;100.00;98312.63;2601828;28;20049;-80
2022/11/15 05:59:07;;;;;;;23.60;10.75;;;;;;;4.86;100.00;98315.28;2602095;28;20110;-79
2022/11/15 06:00:23;;;;;;;50.55;11.18;;;;;;;4.68;100.00;98310.22;2599432;28;20713;-78
2022/11/15 06:01:39;;;;;;;121.50;12.65;;;;;;;4.78;100.00;98317.94;2600824;28;20049;-78
2022/11/15 06:02:55;;;;;;;44.20;10.93;;;;;;;4.87;100.00;98308.38;2600040;28;20162;-80
2022/11/15 06:04:10;;;;;;;95.78;14.25;;;;;;;4.95;100.00;98309.16;2600599;28;20057;-79
2022/11/15 06:05:26;;;;;;;49.92;10.98;;;;;;;4.72;100.00;98306.75;2600519;28;20060;-79
2022/11/15 06:06:42;;;;;;;39.70;10.82;;;;;;;4.85;100.00;98310.13;2600889;28;20139;-78
2022/11/15 06:07:58;;;;;;;64.85;11.07;;;;;;;4.58;100.00;98302.50;2601949;28;20056;-77
2022/11/15 06:09:14;;;;;;;88.10;11.82;;;;;;;4.56;100.00;98312.03;2599873;28;20053;-79
2022/11/15 06:10:29;;;;;;;41.58;9.10;;;;;;;4.69;100.00;98302.44;2601287;28;20049;-79
2022/11/15 06:11:45;;;;;;;22.13;9.50;;;;;;;4.89;100.00;98301.44;2599879;28;20144;-78
2022/11/15 06:13:03;;;;;;;45.92;9.82;;;;;;;4.82;100.00;98303.22;2598904;28;20049;-78
2022/11/15 06:14:19;;;;;;;57.17;10.35;;;;;;;4.82;100.00;98305.81;2602917;28;20193;-80
2022/11/15 06:15:34;;;;;;;88.93;12.10;;;;;;;4.48;100.00;98311.22;2599911;28;20049;-78